Time;durP1;ratioP1;P1;durP2;ratioP2;P2;SDS_P1;SDS_P2;PMS_P1;PMS_P2;Temp;Humidity;BMP_temperature;BMP_pressure;BME280_temperature;BME280_humidity;BME280_pressure;Samples;Min_cycle;Max_cycle;Signal;HPM_P1;HPM_P2
2021/04/29 00:01:19;;;;;;;14.68;6.35;;;7.30;99.90;;;5.85;71.05;100264.50;4848758;28;20098;-77
2021/04/29 00:03:42;;;;;;;15.80;6.15;;;7.20;99.90;;;5.71;71.88;100267.56;4850870;28;20093;-80
2021/04/29 00:06:06;;;;;;;11.73;6.35;;;7.10;99.90;;;5.59;72.05;100257.50;4846457;28;20525;-78
2021/04/29 00:08:29;;;;;;;15.20;6.55;;;7.00;99.90;;;5.50;72.69;100256.06;4848963;28;20085;-79
2021/04/29 00:10:52;;;;;;;11.98;6.22;;;7.00;99.90;;;5.61;71.66;100254.84;4849726;28;20082;-78
2021/04/29 00:13:14;;;;;;;16.40;5.97;;;7.00;99.90;;;5.56;72.16;100249.78;4849179;28;20080;-77
2021/04/29 00:15:37;;;;;;;13.85;7.15;;;7.10;99.90;;;5.74;70.34;100251.78;4850209;28;20090;-79
2021/04/29 00:18:01;;;;;;;14.15;6.53;;;7.40;99.90;;;6.01;69.43;100243.91;4863219;28;20097;-78
2021/04/29 00:20:25;;;;;;;15.75;7.28;;;7.40;99.90;;;6.01;68.82;100246.53;4868348;28;20081;-78
2021/04/29 00:22:48;;;;;;;16.20;6.40;;;7.50;99.90;;;6.12;67.97;100248.75;4845440;28;20161;-77
2021/04/29 00:25:12;;;;;;;12.57;5.90;;;7.50;99.90;;;6.09;67.44;100247.13;4851084;28;20094;-79
2021/04/29 00:27:35;;;;;;;13.35;6.57;;;7.50;99.90;;;6.05;67.42;100248.13;4855206;28;20092;-79
2021/04/29 00:29:58;;;;;;;14.70;6.75;;;7.50;99.90;;;6.03;67.52;100252.56;4877233;28;20089;-78
2021/04/29 00:32:20;;;;;;;13.43;7.05;;;7.60;99.90;;;6.22;66.14;100252.75;4867318;28;20084;-77
2021/04/29 00:34:44;;;;;;;14.85;6.43;;;7.70;99.90;;;6.26;65.24;100254.31;4867682;28;20112;-79
2021/04/29 00:37:07;;;;;;;13.02;6.53;;;7.60;99.90;;;6.26;65.72;100256.94;4869184;28;20134;-78
2021/04/29 00:39:30;;;;;;;18.23;6.78;;;7.60;99.90;;;6.23;66.22;100240.53;4872275;28;20499;-79
2021/04/29 00:41:52;;;;;;;17.67;6.50;;;7.60;99.90;;;6.12;66.06;100241.78;4866056;28;20083;-79
2021/04/29 00:44:15;;;;;;;13.68;7.20;;;7.50;99.90;;;6.05;66.92;100240.28;4867819;28;20172;-79
2021/04/29 00:46:38;;;;;;;12.98;6.70;;;7.50;99.90;;;6.04;67.34;100237.72;4869198;28;20130;-78
2021/04/29 00:49:01;;;;;;;19.63;6.63;;;7.60;99.90;;;6.18;66.31;100237.22;4846661;28;20087;-78
2021/04/29 00:51:25;;;;;;;16.50;6.65;;;7.50;99.90;;;6.06;66.98;100233.28;4848449;28;20083;-78
2021/04/29 00:53:50;;;;;;;15.05;7.53;;;7.50;99.90;;;6.06;66.52;100235.91;4848410;28;20086;-79
2021/04/29 00:56:13;;;;;;;14.13;7.22;;;7.40;99.90;;;6.14;66.07;100234.72;4848563;28;20082;-79
2021/04/29 00:58:36;;;;;;;11.95;6.65;;;7.40;99.90;;;6.04;66.53;100233.34;4849474;28;20464;-79
2021/04/29 01:01:00;;;;;;;18.80;7.15;;;7.50;99.90;;;6.17;65.24;100236.38;4848545;28;20084;-77
2021/04/29 01:03:32;;;;;;;14.55;6.60;;;7.50;99.90;;;6.14;65.72;100231.28;4849100;28;20757;-78
2021/04/29 01:06:03;;;;;;;12.80;6.88;;;7.60;99.90;;;6.26;64.90;100232.56;4863070;28;20191;-78
2021/04/29 01:08:36;;;;;;;21.02;7.10;;;7.70;99.90;;;6.36;64.14;100229.56;4870284;28;20137;-79
2021/04/29 01:11:06;;;;;;;16.45;6.90;;;7.80;99.90;;;6.49;63.82;100229.09;4856867;28;20085;-79
2021/04/29 01:13:33;;;;;;;15.55;7.03;;;7.80;99.90;;;6.46;64.19;100229.25;4863948;28;20089;-79
2021/04/29 01:15:57;;;;;;;15.63;7.28;;;7.90;99.90;;;6.59;63.97;100217.41;4865820;28;20452;-78
2021/04/29 01:18:24;;;;;;;17.98;6.93;;;7.80;99.90;;;6.48;63.95;100217.81;4872089;28;20092;-79
2021/04/29 01:20:57;;;;;;;12.88;7.10;;;7.90;99.90;;;6.51;63.66;100216.81;4865179;28;20522;-80
2021/04/29 01:23:33;;;;;;;13.98;6.47;;;7.80;99.90;;;6.30;65.19;100218.47;4870515;28;20162;-79
2021/04/29 01:26:02;;;;;;;18.52;7.18;;;7.70;99.90;;;6.25;64.04;100218.66;4874107;28;20519;-80
2021/04/29 01:28:28;;;;;;;15.90;7.50;;;7.60;99.90;;;6.15;65.40;100212.91;4862316;28;20188;-79
2021/04/29 01:30:51;;;;;;;17.15;7.18;;;7.50;99.90;;;6.05;66.36;100216.78;4868104;28;20083;-78
2021/04/29 01:33:15;;;;;;;15.85;7.10;;;7.40;99.90;;;5.98;66.60;100217.03;4863273;28;20111;-78
2021/04/29 01:35:38;;;;;;;13.70;7.78;;;7.40;99.90;;;5.93;66.37;100215.41;4868363;28;20078;-78
2021/04/29 01:38:01;;;;;;;15.70;7.85;;;7.40;99.90;;;5.94;66.79;100216.28;4872530;28;20096;-78
2021/04/29 01:40:24;;;;;;;13.63;6.65;;;7.40;99.90;;;5.90;66.80;100214.69;4861886;28;20079;-78
2021/04/29 01:42:48;;;;;;;15.65;6.65;;;7.30;99.90;;;5.88;67.07;100221.72;4877629;28;20092;-80
2021/04/29 01:45:12;;;;;;;13.57;6.57;;;7.30;99.90;;;5.89;66.60;100208.56;4873373;28;20111;-80
2021/04/29 01:47:36;;;;;;;12.23;6.65;;;7.30;99.90;;;5.87;66.59;100210.38;4870768;28;20104;-79
2021/04/29 01:50:00;;;;;;;13.52;7.25;;;7.30;99.90;;;5.87;66.62;100202.53;4873741;28;20086;-79
2021/04/29 01:52:23;;;;;;;14.40;6.72;;;7.20;99.90;;;5.85;66.67;100199.16;4860038;28;20081;-79
2021/04/29 01:54:46;;;;;;;15.85;7.43;;;7.40;99.90;;;5.98;66.23;100194.34;4869352;28;20088;-77
2021/04/29 01:57:09;;;;;;;18.67;7.18;;;7.30;99.90;;;5.88;67.06;100195.59;4868514;28;20089;-80
2021/04/29 01:59:32;;;;;;;18.08;7.47;;;7.30;99.90;;;5.90;65.73;100188.53;4869888;28;20096;-80
2021/04/29 02:01:56;;;;;;;16.88;7.55;;;7.30;99.90;;;5.81;66.77;100194.94;4862504;28;20448;-80
2021/04/29 02:04:18;;;;;;;14.57;7.63;;;7.20;99.90;;;5.72;67.67;100200.47;4869504;28;20111;-79
2021/04/29 02:06:43;;;;;;;18.30;6.85;;;7.10;99.90;;;5.62;67.78;100193.91;4873922;28;20092;-79
2021/04/29 02:09:08;;;;;;;12.32;6.57;;;7.10;99.90;;;5.88;65.82;100190.34;4872645;28;20484;-79
2021/04/29 02:11:34;;;;;;;16.02;7.35;;;7.20;99.90;;;5.87;66.64;100193.88;4873147;28;20092;-79
2021/04/29 02:13:59;;;;;;;16.33;7.07;;;7.30;99.90;;;5.94;66.17;100188.41;4867322;28;20141;-80
2021/04/29 02:16:32;;;;;;;16.08;7.72;;;7.30;99.90;;;5.86;66.54;100181.72;4866611;28;20152;-81
2021/04/29 02:18:57;;;;;;;14.45;7.32;;;7.20;99.90;;;5.81;66.54;100181.88;4867817;28;20081;-80
2021/04/29 02:21:22;;;;;;;17.95;8.02;;;7.20;99.90;;;5.71;67.67;100175.28;4865673;28;20446;-80
2021/04/29 02:23:47;;;;;;;16.88;7.45;;;7.10;99.90;;;5.73;66.89;100178.69;4848222;28;21221;-79
2021/04/29 02:26:11;;;;;;;18.45;7.30;;;7.10;99.90;;;5.64;67.44;100177.25;4866508;28;20084;-79
2021/04/29 02:28:36;;;;;;;20.40;7.35;;;7.00;99.90;;;5.56;67.78;100176.66;4863227;28;20476;-80
2021/04/29 02:31:02;;;;;;;16.42;6.97;;;7.00;99.90;;;5.52;67.60;100172.44;4865924;28;20088;-79
2021/04/29 02:33:25;;;;;;;16.95;7.43;;;6.90;99.90;;;5.50;68.29;100172.50;4861125;28;20480;-80
2021/04/29 02:35:49;;;;;;;18.25;7.60;;;6.90;99.90;;;5.43;68.32;100168.41;4864614;28;20084;-80
2021/04/29 02:38:16;;;;;;;15.52;7.38;;;6.90;99.90;;;5.44;68.19;100167.50;4864942;28;21045;-78
2021/04/29 02:40:39;;;;;;;22.58;8.98;;;6.90;99.90;;;5.46;68.72;100170.03;4870797;28;20092;-80
2021/04/29 02:43:01;;;;;;;16.58;7.97;;;6.90;99.90;;;5.44;68.53;100164.03;4866312;28;20132;-79
2021/04/29 02:45:24;;;;;;;24.65;8.30;;;6.90;99.90;;;5.53;68.51;100159.34;4859329;28;20151;-79
2021/04/29 02:47:50;;;;;;;16.13;7.45;;;7.00;99.90;;;5.52;68.57;100168.06;4864446;28;20096;-77
2021/04/29 02:50:17;;;;;;;18.45;7.68;;;7.00;99.90;;;5.76;68.08;100166.34;4865056;28;20090;-79
2021/04/29 02:52:41;;;;;;;17.42;8.02;;;7.10;99.90;;;5.78;68.56;100162.84;4866491;28;20088;-79
2021/04/29 02:55:06;;;;;;;18.00;7.72;;;7.10;99.90;;;5.74;68.25;100159.47;4869493;28;20089;-79
2021/04/29 02:57:29;;;;;;;16.00;7.97;;;7.10;99.90;;;5.69;68.34;100150.97;4849995;28;20089;-79
2021/04/29 02:59:52;;;;;;;20.35;7.70;;;7.10;99.90;;;5.66;69.01;100148.44;4851202;28;20086;-79
2021/04/29 03:02:15;;;;;;;16.42;7.82;;;7.10;99.90;;;5.68;68.87;100147.50;4851818;28;20089;-77
2021/04/29 03:04:38;;;;;;;21.95;8.00;;;7.10;99.90;;;5.70;68.36;100144.81;4849588;28;20093;-78
2021/04/29 03:07:01;;;;;;;17.45;7.88;;;7.20;99.90;;;5.76;68.27;100142.00;4851949;28;20089;-75
2021/04/29 03:09:25;;;;;;;16.00;7.55;;;7.20;99.90;;;5.78;68.23;100131.50;4866457;28;20101;-79
2021/04/29 03:11:48;;;;;;;17.02;7.53;;;7.20;99.90;;;5.86;66.71;100137.31;4861860;28;20081;-79
2021/04/29 03:14:11;;;;;;;20.83;8.45;;;7.20;99.90;;;5.83;68.10;100130.44;4869815;28;20085;-79
2021/04/29 03:16:34;;;;;;;18.45;7.57;;;7.20;99.90;;;5.77;68.31;100128.03;4868348;28;20571;-80
2021/04/29 03:18:57;;;;;;;18.08;7.88;;;7.20;99.90;;;5.85;67.82;100127.75;4866815;28;20090;-80
2021/04/29 03:21:20;;;;;;;16.98;7.63;;;7.40;99.90;;;6.09;66.54;100110.31;4862974;28;20602;-79
2021/04/29 03:23:43;;;;;;;13.30;7.28;;;7.50;99.90;;;6.22;65.87;100111.59;4869138;28;20229;-78
2021/04/29 03:26:06;;;;;;;14.57;7.30;;;7.50;99.90;;;6.15;66.21;100113.59;4867176;28;20104;-79
2021/04/29 03:28:30;;;;;;;19.52;7.70;;;7.50;99.90;;;6.07;66.10;100113.03;4863723;28;20081;-78
2021/04/29 03:30:53;;;;;;;19.67;8.02;;;7.50;99.90;;;6.08;66.37;100108.63;4866356;28;20527;-79
2021/04/29 03:33:16;;;;;;;26.17;8.20;;;7.50;99.90;;;6.28;65.91;100105.25;4854204;28;20552;-79
2021/04/29 03:35:39;;;;;;;15.85;8.30;;;7.60;99.90;;;6.24;66.70;100106.28;4850795;28;20093;-79
2021/04/29 03:38:02;;;;;;;19.25;7.78;;;7.60;99.90;;;6.20;66.20;100112.53;4854928;28;20104;-78
2021/04/29 03:40:25;;;;;;;15.85;8.02;;;7.50;99.90;;;6.18;66.37;100107.38;4865615;28;20085;-78
2021/04/29 03:42:49;;;;;;;18.80;8.32;;;7.60;99.90;;;6.29;65.04;100104.34;4866811;28;20528;-79
2021/04/29 03:45:12;;;;;;;15.55;8.60;;;7.60;99.90;;;6.25;65.69;100102.78;4867947;28;20093;-79
2021/04/29 03:47:35;;;;;;;17.92;8.77;;;7.60;99.90;;;6.31;65.31;100106.00;4866350;28;20574;-79
2021/04/29 03:49:58;;;;;;;14.65;8.07;;;7.60;99.90;;;6.23;66.07;100102.81;4863126;28;20088;-80
2021/04/29 03:52:21;;;;;;;20.20;7.57;;;7.60;99.90;;;6.14;66.08;100105.78;4867423;28;20441;-78
2021/04/29 03:54:44;;;;;;;16.85;8.73;;;7.50;99.90;;;6.15;65.86;100102.25;4860738;28;20084;-79
2021/04/29 03:57:08;;;;;;;19.55;8.45;;;7.50;99.90;;;6.16;67.04;100109.19;4864545;28;20139;-80
2021/04/29 03:59:33;;;;;;;17.55;7.95;;;7.50;99.90;;;6.11;66.92;100098.06;4868739;28;20143;-79
2021/04/29 04:01:56;;;;;;;16.58;8.65;;;7.40;99.90;;;6.06;67.37;100095.63;4863082;28;20085;-79
2021/04/29 04:04:18;;;;;;;17.40;8.23;;;7.50;99.90;;;6.09;67.21;100097.25;4865938;28;20081;-80
2021/04/29 04:06:41;;;;;;;14.95;8.30;;;7.50;99.90;;;6.14;67.03;100093.56;4867221;28;20084;-80
2021/04/29 04:09:04;;;;;;;19.17;8.18;;;7.50;99.90;;;6.14;66.37;100100.56;4857090;28;20092;-80
2021/04/29 04:11:27;;;;;;;17.75;8.45;;;7.50;99.90;;;6.17;67.17;100092.59;4867018;28;20084;-80
2021/04/29 04:13:50;;;;;;;17.95;8.65;;;7.60;99.90;;;6.22;67.10;100093.28;4857715;28;20081;-79
2021/04/29 04:16:15;;;;;;;14.05;8.00;;;7.60;99.90;;;6.23;67.02;100091.50;4863488;28;20101;-79
2021/04/29 04:18:38;;;;;;;17.60;8.45;;;7.60;99.90;;;6.19;66.89;100089.94;4864931;28;20088;-79
2021/04/29 04:21:00;;;;;;;20.85;8.40;;;7.60;99.90;;;6.27;66.69;100083.50;4868546;28;20086;-80
2021/04/29 04:23:23;;;;;;;20.90;8.85;;;7.60;99.90;;;6.35;65.79;100081.44;4860250;28;20099;-80
2021/04/29 04:25:46;;;;;;;16.67;8.55;;;7.70;99.90;;;6.37;66.75;100076.13;4852715;28;20085;-78
2021/04/29 04:28:10;;;;;;;16.23;8.48;;;7.80;99.90;;;6.40;67.16;100064.72;4871590;28;20085;-79
2021/04/29 04:30:32;;;;;;;20.95;8.32;;;7.80;99.90;;;6.43;66.57;100069.81;4866716;28;20096;-79
2021/04/29 04:32:56;;;;;;;20.75;9.18;;;7.80;99.90;;;6.43;67.62;100065.41;4866579;28;20134;-79
2021/04/29 04:35:21;;;;;;;24.52;9.30;;;7.80;99.90;;;6.51;67.03;100070.34;4863232;28;20082;-79
2021/04/29 04:37:44;;;;;;;21.92;9.05;;;7.90;99.90;;;6.53;67.41;100064.16;4862633;28;20081;-79
2021/04/29 04:40:09;;;;;;;18.40;8.95;;;7.90;99.90;;;6.61;66.02;100066.47;4862724;28;20092;-80
2021/04/29 04:42:32;;;;;;;22.48;8.93;;;8.00;99.90;;;6.67;65.98;100073.19;4863693;28;20085;-78
2021/04/29 04:44:55;;;;;;;18.55;8.20;;;8.00;99.90;;;6.71;65.36;100069.53;4865005;28;20079;-80
2021/04/29 04:47:18;;;;;;;18.98;8.85;;;8.10;99.90;;;6.77;64.83;100064.91;4860776;28;20087;-77
2021/04/29 04:49:42;;;;;;;23.95;9.48;;;8.10;99.90;;;6.81;64.96;100063.03;4864157;28;20091;-75
2021/04/29 04:52:06;;;;;;;22.42;8.95;;;8.20;99.90;;;6.87;63.76;100062.78;4869580;28;20093;-80
2021/04/29 04:54:29;;;;;;;21.50;8.95;;;8.30;99.90;;;6.98;64.29;100060.53;4870986;28;20089;-79
2021/04/29 04:56:52;;;;;;;19.65;9.77;;;8.30;99.90;;;7.05;64.20;100058.50;4862751;28;20129;-79
2021/04/29 04:59:15;;;;;;;18.88;8.70;;;8.40;99.90;;;7.17;63.46;100058.00;4865004;28;20092;-76
2021/04/29 05:01:37;;;;;;;16.40;8.40;;;8.50;99.90;;;7.22;63.78;100059.56;4867291;28;20463;-76
2021/04/29 05:04:00;;;;;;;17.98;8.65;;;8.50;99.90;;;7.34;62.64;100062.50;4870269;28;20094;-79
2021/04/29 05:06:24;;;;;;;19.65;8.05;;;8.60;99.90;;;7.40;61.70;100056.97;4860634;28;20082;-81
2021/04/29 05:08:47;;;;;;;14.68;7.97;;;8.70;99.90;;;7.44;62.03;100062.94;4866162;28;20076;-80
2021/04/29 05:11:10;;;;;;;18.00;9.60;;;8.70;99.90;;;7.42;62.99;100064.78;4861003;28;20083;-80
2021/04/29 05:13:32;;;;;;;18.45;9.30;;;8.70;99.90;;;7.45;62.80;100054.19;4854312;28;20144;-80
2021/04/29 05:15:55;;;;;;;18.42;8.35;;;8.70;99.90;;;7.48;60.94;100053.19;4853385;28;20090;-80
2021/04/29 05:18:18;;;;;;;18.33;8.88;;;8.70;99.90;;;7.45;63.23;100054.19;4866051;28;20114;-80
2021/04/29 05:20:41;;;;;;;22.05;9.30;;;8.80;99.90;;;7.50;62.53;100046.94;4873089;28;20080;-79
2021/04/29 05:23:05;;;;;;;16.17;8.48;;;8.90;99.90;;;7.69;61.22;100044.34;4867390;28;20651;-80
2021/04/29 05:25:28;;;;;;;21.60;10.23;;;9.00;99.90;;;7.70;62.99;100040.81;4859072;28;20090;-80
2021/04/29 05:27:52;;;;;;;23.80;9.02;;;9.00;99.90;;;7.83;61.01;100038.47;4866102;28;20081;-79
2021/04/29 05:30:16;;;;;;;20.40;8.30;;;9.10;99.90;;;7.83;60.55;100030.59;4867701;28;20112;-79
2021/04/29 05:32:39;;;;;;;22.42;9.45;;;9.20;99.90;;;7.94;60.11;100028.31;4865869;28;20433;-78
2021/04/29 05:35:03;;;;;;;18.13;8.57;;;9.30;99.90;;;8.14;58.72;100019.53;4875154;28;20095;-77
2021/04/29 05:37:26;;;;;;;19.85;9.63;;;9.30;99.90;;;8.07;58.56;100014.66;4859532;28;20155;-77
2021/04/29 05:39:49;;;;;;;17.80;8.90;;;9.40;99.90;;;8.28;60.09;100021.50;4870542;28;20086;-78
2021/04/29 05:42:12;;;;;;;19.23;8.40;;;9.50;99.90;;;8.48;58.42;100017.09;4867908;28;20095;-79
2021/04/29 05:44:35;;;;;;;17.95;8.52;;;9.60;99.90;;;8.51;57.96;100019.53;4866308;28;20120;-79
2021/04/29 05:46:58;;;;;;;21.17;9.13;;;9.70;99.90;;;8.58;59.91;100019.19;4866808;28;20089;-78
2021/04/29 05:49:21;;;;;;;22.30;8.70;;;9.90;99.90;;;8.71;56.85;100018.56;4868982;28;20173;-81
2021/04/29 05:51:44;;;;;;;19.83;8.60;;;9.90;99.90;;;8.85;57.40;100015.25;4872507;28;20539;-77
2021/04/29 05:54:07;;;;;;;22.30;9.27;;;10.00;99.90;;;8.88;56.80;100007.22;4865552;28;20117;-78
2021/04/29 05:56:30;;;;;;;21.00;9.32;;;10.10;99.90;;;8.94;57.96;100015.63;4864934;28;20144;-77
2021/04/29 05:58:53;;;;;;;22.23;9.85;;;10.10;99.90;;;8.79;57.64;100011.13;4867860;28;20089;-75
2021/04/29 06:01:16;;;;;;;19.27;9.00;;;10.00;99.90;;;8.70;56.69;100001.94;4862530;28;20091;-78
2021/04/29 06:03:39;;;;;;;19.48;10.25;;;10.00;99.90;;;8.75;58.30;100013.09;4863306;28;20089;-78
2021/04/29 06:06:02;;;;;;;22.42;9.02;;;10.00;99.90;;;8.85;57.83;100002.94;4871679;28;20093;-79
2021/04/29 06:08:25;;;;;;;17.25;8.85;;;10.10;99.90;;;8.94;57.11;100006.88;4850113;28;20094;-80
2021/04/29 06:10:48;;;;;;;16.63;8.50;;;10.20;99.90;;;9.11;57.53;100004.25;4865676;28;20078;-78
2021/04/29 06:13:11;;;;;;;24.10;8.93;;;10.30;99.90;;;9.16;56.86;100004.88;4862096;28;20121;-79
2021/04/29 06:15:34;;;;;;;22.55;10.10;;;10.40;99.90;;;9.21;55.96;100007.25;4871773;28;20085;-76
2021/04/29 06:17:57;;;;;;;19.33;8.55;;;10.40;99.90;;;9.16;55.82;99997.00;4865048;28;20081;-76
2021/04/29 06:20:20;;;;;;;21.35;8.70;;;10.40;99.90;;;9.19;56.48;100003.84;4871662;28;20093;-80
2021/04/29 06:22:44;;;;;;;20.83;9.02;;;10.50;99.90;;;9.38;56.75;99987.97;4866574;28;20155;-79
2021/04/29 06:25:08;;;;;;;17.92;8.43;;;10.60;99.90;;;9.43;55.40;99991.19;4868413;28;20085;-81
2021/04/29 06:27:31;;;;;;;21.95;8.98;;;10.60;99.90;;;9.47;55.93;99992.72;4858645;28;20086;-79
2021/04/29 06:29:55;;;;;;;19.95;8.57;;;10.60;99.90;;;9.53;56.39;99984.53;4868023;28;20082;-80
2021/04/29 06:32:18;;;;;;;16.08;8.98;;;10.60;99.90;;;9.49;55.66;99988.25;4859562;28;20590;-78
2021/04/29 06:34:42;;;;;;;20.08;9.15;;;10.70;99.90;;;9.58;54.95;99985.09;4870693;28;20116;-79
2021/04/29 06:37:05;;;;;;;21.83;9.02;;;10.80;99.90;;;9.54;55.34;99983.56;4863732;28;20097;-80
2021/04/29 06:39:27;;;;;;;14.55;8.25;;;10.80;99.90;;;9.78;55.71;99980.53;4863467;28;20082;-79
2021/04/29 06:41:50;;;;;;;20.30;9.38;;;10.80;99.90;;;9.72;53.65;99978.25;4874986;28;20121;-79
2021/04/29 06:44:14;;;;;;;17.92;8.52;;;11.00;99.90;;;9.77;54.50;99977.06;4873903;28;21934;-80
2021/04/29 06:46:38;;;;;;;21.90;8.45;;;11.00;99.90;;;9.63;53.94;99977.84;4864706;28;20081;-80
2021/04/29 06:49:02;;;;;;;18.67;8.40;;;10.90;99.90;;;9.75;54.39;99978.94;4864884;28;20081;-80
2021/04/29 06:51:24;;;;;;;24.30;9.38;;;10.80;99.90;;;9.58;54.84;99982.47;4865283;28;20139;-79
2021/04/29 06:53:47;;;;;;;15.73;8.32;;;10.70;99.90;;;9.63;54.04;99995.38;4862506;28;20080;-79
2021/04/29 06:56:10;;;;;;;25.15;9.18;;;10.70;99.90;;;9.61;54.74;100023.50;4866818;28;20092;-78
2021/04/29 06:58:34;;;;;;;21.27;9.20;;;10.70;99.90;;;9.60;57.12;100056.00;4865495;28;20077;-80
2021/04/29 07:00:57;;;;;;;20.45;9.13;;;10.40;99.90;;;9.29;58.42;100051.50;4869672;28;20074;-78
2021/04/29 07:03:21;;;;;;;19.48;9.07;;;10.30;99.90;;;9.24;59.30;100059.59;4862556;28;20139;-80
2021/04/29 07:05:44;;;;;;;20.05;9.70;;;10.40;99.90;;;9.32;60.96;100046.09;4863503;28;20090;-80
2021/04/29 07:08:09;;;;;;;22.42;9.13;;;10.50;99.90;;;9.45;57.81;100047.13;4867597;28;20088;-79
2021/04/29 07:10:32;;;;;;;20.67;9.75;;;10.40;99.90;;;9.37;57.59;100058.06;4866249;28;20175;-79
2021/04/29 07:12:55;;;;;;;15.93;8.93;;;10.40;99.90;;;9.31;57.92;100062.75;4867895;28;20083;-79
2021/04/29 07:15:18;;;;;;;23.73;9.43;;;10.30;99.90;;;9.22;61.74;100059.72;4861812;28;20140;-78
2021/04/29 07:17:42;;;;;;;22.15;9.57;;;10.40;99.90;;;9.34;60.91;100052.13;4866882;28;20132;-78
2021/04/29 07:20:07;;;;;;;25.27;9.82;;;10.50;99.90;;;9.40;60.55;100041.28;4867537;28;20088;-80
2021/04/29 07:22:30;;;;;;;22.88;9.25;;;10.40;99.90;;;9.32;55.77;100033.78;4868314;28;20098;-80
2021/04/29 07:24:53;;;;;;;18.88;9.25;;;10.50;99.90;;;9.31;58.60;100026.88;4870319;28;20089;-79
2021/04/29 07:27:15;;;;;;;23.90;9.65;;;10.60;99.90;;;9.40;56.74;100028.16;4859309;28;20085;-79
2021/04/29 07:29:38;;;;;;;20.80;9.10;;;10.50;99.90;;;9.28;56.61;100034.03;4867130;28;20092;-79
2021/04/29 07:32:02;;;;;;;24.50;10.50;;;10.50;99.90;;;9.39;55.32;100026.44;4869823;28;20091;-78
2021/04/29 07:34:25;;;;;;;22.70;9.35;;;10.60;99.90;;;9.45;55.53;100052.41;4870393;28;20080;-78
2021/04/29 07:36:48;;;;;;;20.63;9.55;;;10.50;99.90;;;9.43;55.21;100039.34;4876332;28;20073;-78
2021/04/29 07:39:11;;;;;;;18.58;8.63;;;10.60;99.90;;;9.50;55.96;100053.00;4869077;28;20121;-79
2021/04/29 07:41:34;;;;;;;19.35;9.40;;;10.60;99.90;;;9.47;57.11;100044.44;4867167;28;20078;-78
2021/04/29 07:43:58;;;;;;;19.45;9.48;;;10.50;99.90;;;9.37;57.01;100041.44;4861197;28;20077;-80
2021/04/29 07:46:21;;;;;;;20.10;9.13;;;10.50;99.90;;;9.41;57.71;100032.47;4869037;28;20578;-80
2021/04/29 07:48:44;;;;;;;19.85;9.57;;;10.50;99.90;;;9.47;57.57;100034.78;4848412;28;20089;-80
2021/04/29 07:51:07;;;;;;;20.27;10.00;;;10.60;99.90;;;9.50;55.62;100021.47;4850198;28;20117;-76
2021/04/29 07:53:31;;;;;;;22.55;10.18;;;10.60;99.90;;;9.37;58.04;100017.78;4850667;28;20560;-80
2021/04/29 07:55:54;;;;;;;21.60;9.02;;;10.70;99.90;;;9.59;56.92;100031.50;4849054;28;20431;-77
2021/04/29 07:58:16;;;;;;;22.83;9.85;;;10.50;99.90;;;9.30;56.30;100019.88;4847339;28;20086;-76
2021/04/29 08:00:39;;;;;;;23.67;9.57;;;10.60;99.90;;;9.67;58.23;100017.09;4852017;28;20098;-80
2021/04/29 08:03:04;;;;;;;20.23;9.15;;;10.80;99.90;;;9.72;55.88;100015.03;4866053;28;20093;-81
2021/04/29 08:05:54;;;;;;;21.35;9.73;;;10.70;99.90;;;9.72;57.40;100012.41;4842170;28;20088;-80
2021/04/29 08:09:08;;;;;;;17.83;9.60;;;10.80;99.90;;;9.67;58.55;100004.78;4802699;28;20109;-81
2021/04/29 08:12:12;;;;;;;23.95;9.20;;;10.90;99.90;;;9.84;55.15;99999.44;4818911;28;20108;-80
2021/04/29 08:15:18;;;;;;;24.02;11.05;;;10.90;99.90;;;9.62;56.15;100007.66;4809341;28;20089;-80
2021/04/29 08:18:13;;;;;;;21.13;9.80;;;10.80;99.90;;;9.67;57.92;99996.06;4802615;28;20084;-80
2021/04/29 08:21:14;;;;;;;20.75;9.55;;;11.00;99.90;;;9.77;56.71;99981.47;4790578;28;20082;-79
2021/04/29 08:24:20;;;;;;;22.20;9.68;;;11.20;99.90;;;10.19;55.53;99975.59;4784826;28;20097;-80
2021/04/29 08:27:16;;;;;;;24.58;9.88;;;11.40;99.90;;;10.22;55.21;99974.59;4794705;28;20077;-79
2021/04/29 08:40:58;;;;;;;26.92;10.70;;;11.70;99.90;;;10.84;54.61;100001.69;4805172;28;20088;-80
2021/04/29 08:43:56;;;;;;;23.23;9.43;;;12.00;99.90;;;10.78;52.15;100001.22;4794741;28;20092;-80
2021/04/29 09:05:07;;;;;;;19.58;8.77;;;12.30;99.90;;;11.46;51.46;99997.97;4806179;28;19925;-79
2021/04/29 11:21:03;;;;;;;23.20;12.70;;;11.00;99.90;;;9.91;73.16;99897.41;4802907;28;20769;-83
2021/04/29 11:24:05;;;;;;;26.92;12.80;;;11.00;99.90;;;9.99;70.41;99889.94;4812809;28;20190;-82
2021/04/29 11:26:34;;;;;;;27.67;13.18;;;11.00;99.90;;;9.85;68.65;99900.41;4861598;28;20084;-81
2021/04/29 11:28:57;;;;;;;27.80;12.77;;;10.80;99.90;;;9.79;71.28;99900.75;4881507;28;20111;-81
2021/04/29 11:31:20;;;;;;;26.50;13.60;;;11.00;99.90;;;9.86;73.68;99896.81;4880972;28;20128;-82
2021/04/29 11:33:48;;;;;;;27.05;13.30;;;11.00;99.90;;;9.94;73.26;99888.50;4880054;28;20080;-81
2021/04/29 11:36:20;;;;;;;25.98;13.30;;;;;;;9.98;75.10;99884.78;4882928;28;20052;-81
2021/04/29 11:38:50;;;;;;;24.60;13.25;;;11.00;99.90;;;10.00;74.91;99891.63;4878662;28;20421;-81
2021/04/29 11:41:13;;;;;;;26.05;12.93;;;11.00;99.90;;;10.00;76.23;99888.13;4876952;28;20473;-79
2021/04/29 11:43:36;;;;;;;30.13;14.05;;;11.00;99.90;;;9.89;76.45;99901.91;4867933;28;20072;-81
2021/04/29 11:45:59;;;;;;;30.30;14.80;;;10.80;99.90;;;9.72;76.77;99909.88;4864084;28;20076;-80
2021/04/29 11:48:25;;;;;;;25.65;14.27;;;10.80;99.90;;;9.76;78.20;99912.28;4864174;28;20077;-82
2021/04/29 11:50:54;;;;;;;30.25;13.00;;;10.80;99.90;;;9.72;79.71;99915.16;4865957;28;20127;-82
2021/04/29 11:53:19;;;;;;;28.23;14.48;;;10.80;99.90;;;9.61;78.46;99919.25;4862452;28;20076;-81
2021/04/29 11:55:46;;;;;;;28.33;14.20;;;10.70;99.90;;;9.60;79.34;99916.69;4865383;28;20109;-81
2021/04/29 11:58:11;;;;;;;25.60;12.70;;;10.70;99.90;;;9.58;79.42;99923.81;4865435;28;20122;-81
2021/04/29 12:00:36;;;;;;;;;;;10.70;99.90;;;9.52;78.85;99929.41;4869666;28;20137;-80
2021/04/29 12:03:00;;;;;;;24.85;14.40;;;10.60;99.90;;;9.48;80.02;99925.25;4863639;28;19989;-80
2021/04/29 12:05:35;;;;;;;26.63;14.27;;;10.60;99.90;;;9.51;80.26;99923.31;4861625;28;20077;-80
2021/04/29 12:07:59;;;;;;;28.48;14.00;;;10.60;99.90;;;9.57;80.31;99927.38;4865117;28;20091;-81
2021/04/29 12:10:22;;;;;;;24.20;14.65;;;10.60;99.90;;;9.53;80.18;99931.13;4868504;28;20104;-82
2021/04/29 12:12:50;;;;;;;25.83;14.40;;;10.60;99.90;;;9.54;80.49;99919.66;4865806;28;20459;-81
2021/04/29 12:15:14;;;;;;;28.02;14.07;;;10.70;99.90;;;9.65;80.83;99926.03;4858226;28;20131;-82
2021/04/29 12:17:37;;;;;;;28.02;15.02;;;10.70;99.90;;;9.57;81.09;99932.66;4863039;28;20041;-80
2021/04/29 12:20:00;;;;;;;28.42;14.68;;;10.70;99.90;;;9.60;81.13;99932.47;4859979;28;20073;-80
2021/04/29 12:22:25;;;;;;;25.50;14.45;;;10.80;99.90;;;9.68;81.25;99926.78;4865013;28;20083;-82
2021/04/29 12:24:51;;;;;;;32.77;15.27;;;10.90;99.90;;;9.80;80.33;99924.31;4862498;28;20522;-82
2021/04/29 12:27:19;;;;;;;29.02;15.00;;;10.90;99.90;;;9.94;80.07;99918.28;4860532;28;20133;-80
2021/04/29 12:29:42;;;;;;;24.35;14.15;;;11.10;99.90;;;10.12;79.05;99918.16;4864687;28;20124;-82
2021/04/29 12:32:05;;;;;;;27.85;14.23;;;11.10;99.90;;;10.15;78.81;99915.34;4866945;28;20091;-79
2021/04/29 12:34:29;;;;;;;26.55;14.20;;;11.20;99.90;;;10.15;79.55;99910.94;4863665;28;20053;-86
2021/04/29 12:36:54;;;;;;;29.65;14.77;;;11.20;99.90;;;10.04;79.03;99911.56;4868393;28;20068;-82
2021/04/29 12:39:21;;;;;;;29.35;15.43;;;11.20;99.90;;;10.10;78.97;99918.25;4863837;28;20072;-82
2021/04/29 12:41:52;;;;;;;26.33;13.70;;;11.00;99.90;;;9.74;78.13;99913.28;4867830;28;20084;-83
2021/04/29 12:44:15;;;;;;;27.65;14.20;;;11.10;99.90;;;10.00;78.18;99906.53;4863245;28;20037;-87
2021/04/29 12:46:40;;;;;;;23.73;14.13;;;11.00;99.90;;;9.82;77.44;99911.06;4866307;28;20045;-77
2021/04/29 12:49:05;;;;;;;23.92;14.85;;;10.80;99.90;;;9.73;78.70;99911.59;4863320;28;20084;-92
2021/04/29 12:51:29;;;;;;;23.15;14.13;;;11.00;99.90;;;9.77;78.14;99915.75;4865049;28;20163;-89
2021/04/29 12:53:58;;;;;;;23.73;13.82;;;10.90;99.90;;;9.70;75.56;99911.75;4861855;28;20088;-90